sensor_id;sensor_type;location;lat;lon;timestamp;P1;durP1;ratioP1;P2;durP2;ratioP2
27925;SDS011;15267;47.838;12.128;2023-06-10T00:00:48;8.57;;;6.88;;
27925;SDS011;15267;47.838;12.128;2023-06-10T00:03:15;7.95;;;6.78;;
27925;SDS011;15267;47.838;12.128;2023-06-10T00:05:41;7.95;;;7.00;;
27925;SDS011;15267;47.838;12.128;2023-06-10T00:08:07;8.30;;;6.78;;
27925;SDS011;15267;47.838;12.128;2023-06-10T00:10:37;8.98;;;6.57;;
27925;SDS011;15267;47.838;12.128;2023-06-10T00:13:04;8.07;;;6.68;;
27925;SDS011;15267;47.838;12.128;2023-06-10T00:15:30;7.07;;;6.20;;
27925;SDS011;15267;47.838;12.128;2023-06-10T00:17:56;7.13;;;6.43;;
27925;SDS011;15267;47.838;12.128;2023-06-10T00:20:22;10.98;;;7.03;;
27925;SDS011;15267;47.838;12.128;2023-06-10T00:22:49;8.43;;;6.90;;
27925;SDS011;15267;47.838;12.128;2023-06-10T00:25:16;8.55;;;6.57;;
27925;SDS011;15267;47.838;12.128;2023-06-10T00:27:42;6.97;;;6.28;;
27925;SDS011;15267;47.838;12.128;2023-06-10T00:30:08;9.85;;;6.90;;
27925;SDS011;15267;47.838;12.128;2023-06-10T00:32:34;7.55;;;6.72;;
27925;SDS011;15267;47.838;12.128;2023-06-10T00:35:01;7.75;;;6.72;;
27925;SDS011;15267;47.838;12.128;2023-06-10T00:37:26;7.00;;;6.30;;
27925;SDS011;15267;47.838;12.128;2023-06-10T00:39:54;10.07;;;6.75;;
27925;SDS011;15267;47.838;12.128;2023-06-10T00:42:20;7.13;;;6.53;;
27925;SDS011;15267;47.838;12.128;2023-06-10T00:44:47;9.48;;;6.97;;
27925;SDS011;15267;47.838;12.128;2023-06-10T00:47:13;7.55;;;5.90;;
27925;SDS011;15267;47.838;12.128;2023-06-10T00:49:39;11.35;;;6.43;;
27925;SDS011;15267;47.838;12.128;2023-06-10T00:52:05;6.70;;;6.10;;
27925;SDS011;15267;47.838;12.128;2023-06-10T00:54:32;7.78;;;6.60;;
27925;SDS011;15267;47.838;12.128;2023-06-10T00:57:00;7.78;;;6.57;;
27925;SDS011;15267;47.838;12.128;2023-06-10T00:59:26;8.65;;;7.00;;
27925;SDS011;15267;47.838;12.128;2023-06-10T01:01:52;8.27;;;6.60;;
27925;SDS011;15267;47.838;12.128;2023-06-10T01:04:18;7.15;;;6.13;;
27925;SDS011;15267;47.838;12.128;2023-06-10T01:07:06;7.47;;;6.53;;
27925;SDS011;15267;47.838;12.128;2023-06-10T01:09:50;10.60;;;7.90;;
27925;SDS011;15267;47.838;12.128;2023-06-10T01:12:24;7.43;;;6.70;;
27925;SDS011;15267;47.838;12.128;2023-06-10T01:14:52;6.75;;;6.15;;
27925;SDS011;15267;47.838;12.128;2023-06-10T01:17:18;10.73;;;6.88;;
27925;SDS011;15267;47.838;12.128;2023-06-10T01:19:44;9.88;;;7.68;;
27925;SDS011;15267;47.838;12.128;2023-06-10T01:22:19;8.85;;;7.00;;
27925;SDS011;15267;47.838;12.128;2023-06-10T01:24:47;8.50;;;6.80;;
27925;SDS011;15267;47.838;12.128;2023-06-10T01:27:15;7.43;;;6.72;;
27925;SDS011;15267;47.838;12.128;2023-06-10T01:29:45;7.90;;;6.88;;
27925;SDS011;15267;47.838;12.128;2023-06-10T01:34:58;8.38;;;6.82;;
27925;SDS011;15267;47.838;12.128;2023-06-10T01:37:25;7.38;;;6.68;;
27925;SDS011;15267;47.838;12.128;2023-06-10T01:39:52;9.90;;;6.85;;
27925;SDS011;15267;47.838;12.128;2023-06-10T01:42:20;7.32;;;6.63;;
27925;SDS011;15267;47.838;12.128;2023-06-10T01:44:47;9.75;;;6.30;;
27925;SDS011;15267;47.838;12.128;2023-06-10T01:47:12;8.80;;;6.60;;
27925;SDS011;15267;47.838;12.128;2023-06-10T01:49:38;8.25;;;7.45;;
27925;SDS011;15267;47.838;12.128;2023-06-10T01:52:05;8.82;;;8.02;;
27925;SDS011;15267;47.838;12.128;2023-06-10T01:54:31;9.18;;;7.90;;
27925;SDS011;15267;47.838;12.128;2023-06-10T01:56:59;9.73;;;7.85;;
27925;SDS011;15267;47.838;12.128;2023-06-10T01:59:25;9.60;;;7.03;;
27925;SDS011;15267;47.838;12.128;2023-06-10T02:01:51;8.23;;;6.85;;
27925;SDS011;15267;47.838;12.128;2023-06-10T02:04:17;9.10;;;7.40;;
27925;SDS011;15267;47.838;12.128;2023-06-10T02:06:43;7.93;;;7.15;;
27925;SDS011;15267;47.838;12.128;2023-06-10T02:09:10;7.35;;;6.63;;
27925;SDS011;15267;47.838;12.128;2023-06-10T02:11:36;10.25;;;6.75;;
27925;SDS011;15267;47.838;12.128;2023-06-10T02:14:02;8.45;;;7.10;;
27925;SDS011;15267;47.838;12.128;2023-06-10T02:16:27;9.52;;;6.82;;
27925;SDS011;15267;47.838;12.128;2023-06-10T02:18:53;10.35;;;6.95;;
27925;SDS011;15267;47.838;12.128;2023-06-10T02:21:20;8.98;;;7.20;;
27925;SDS011;15267;47.838;12.128;2023-06-10T02:23:46;9.27;;;6.93;;
27925;SDS011;15267;47.838;12.128;2023-06-10T02:26:12;8.38;;;7.47;;
27925;SDS011;15267;47.838;12.128;2023-06-10T02:28:41;8.18;;;7.32;;
27925;SDS011;15267;47.838;12.128;2023-06-10T02:31:07;8.63;;;7.28;;
27925;SDS011;15267;47.838;12.128;2023-06-10T02:33:33;10.50;;;6.95;;
27925;SDS011;15267;47.838;12.128;2023-06-10T02:35:59;7.70;;;6.90;;
27925;SDS011;15267;47.838;12.128;2023-06-10T02:38:25;8.43;;;7.03;;
27925;SDS011;15267;47.838;12.128;2023-06-10T02:40:51;7.70;;;6.90;;
27925;SDS011;15267;47.838;12.128;2023-06-10T02:43:18;8.90;;;7.38;;
27925;SDS011;15267;47.838;12.128;2023-06-10T02:45:44;7.60;;;6.80;;
27925;SDS011;15267;47.838;12.128;2023-06-10T02:48:10;7.53;;;6.72;;
27925;SDS011;15267;47.838;12.128;2023-06-10T02:50:35;10.50;;;7.45;;
27925;SDS011;15267;47.838;12.128;2023-06-10T02:53:03;9.73;;;7.45;;
27925;SDS011;15267;47.838;12.128;2023-06-10T02:55:29;10.40;;;7.20;;
27925;SDS011;15267;47.838;12.128;2023-06-10T02:57:55;9.10;;;7.85;;
27925;SDS011;15267;47.838;12.128;2023-06-10T03:00:21;9.85;;;7.18;;
27925;SDS011;15267;47.838;12.128;2023-06-10T03:02:47;8.77;;;7.88;;
27925;SDS011;15267;47.838;12.128;2023-06-10T03:05:14;10.40;;;8.43;;
27925;SDS011;15267;47.838;12.128;2023-06-10T03:07:40;11.07;;;8.63;;
27925;SDS011;15267;47.838;12.128;2023-06-10T03:10:06;9.50;;;8.60;;
27925;SDS011;15267;47.838;12.128;2023-06-10T03:12:32;9.57;;;8.57;;
27925;SDS011;15267;47.838;12.128;2023-06-10T03:14:58;11.48;;;9.10;;
27925;SDS011;15267;47.838;12.128;2023-06-10T03:17:24;9.30;;;8.05;;
27925;SDS011;15267;47.838;12.128;2023-06-10T03:19:50;8.48;;;7.57;;
27925;SDS011;15267;47.838;12.128;2023-06-10T03:22:16;9.00;;;7.47;;
27925;SDS011;15267;47.838;12.128;2023-06-10T03:24:42;8.75;;;7.68;;
27925;SDS011;15267;47.838;12.128;2023-06-10T03:27:11;8.35;;;7.45;;
27925;SDS011;15267;47.838;12.128;2023-06-10T03:29:38;9.35;;;7.40;;
27925;SDS011;15267;47.838;12.128;2023-06-10T03:32:04;10.68;;;7.65;;
27925;SDS011;15267;47.838;12.128;2023-06-10T03:34:30;8.23;;;6.88;;
27925;SDS011;15267;47.838;12.128;2023-06-10T03:36:56;7.75;;;6.95;;
27925;SDS011;15267;47.838;12.128;2023-06-10T03:39:22;7.93;;;7.13;;
27925;SDS011;15267;47.838;12.128;2023-06-10T03:41:49;8.73;;;7.53;;
27925;SDS011;15267;47.838;12.128;2023-06-10T03:44:15;9.35;;;7.85;;
27925;SDS011;15267;47.838;12.128;2023-06-10T03:46:41;8.30;;;7.50;;
27925;SDS011;15267;47.838;12.128;2023-06-10T03:49:07;8.50;;;7.70;;
27925;SDS011;15267;47.838;12.128;2023-06-10T03:51:34;9.40;;;7.85;;
27925;SDS011;15267;47.838;12.128;2023-06-10T03:54:00;8.65;;;7.80;;
27925;SDS011;15267;47.838;12.128;2023-06-10T03:56:26;7.40;;;6.70;;
27925;SDS011;15267;47.838;12.128;2023-06-10T03:58:53;13.60;;;8.32;;
27925;SDS011;15267;47.838;12.128;2023-06-10T04:01:19;9.20;;;8.25;;
27925;SDS011;15267;47.838;12.128;2023-06-10T04:03:46;8.25;;;7.45;;
27925;SDS011;15267;47.838;12.128;2023-06-10T04:06:14;7.80;;;7.10;;
27925;SDS011;15267;47.838;12.128;2023-06-10T04:08:41;7.82;;;7.00;;
27925;SDS011;15267;47.838;12.128;2023-06-10T04:11:07;7.75;;;6.97;;
27925;SDS011;15267;47.838;12.128;2023-06-10T04:13:33;9.45;;;8.45;;
27925;SDS011;15267;47.838;12.128;2023-06-10T04:15:59;8.68;;;7.78;;
27925;SDS011;15267;47.838;12.128;2023-06-10T04:18:25;7.80;;;7.10;;
27925;SDS011;15267;47.838;12.128;2023-06-10T04:20:51;8.38;;;6.80;;
27925;SDS011;15267;47.838;12.128;2023-06-10T04:23:17;7.47;;;6.65;;
27925;SDS011;15267;47.838;12.128;2023-06-10T04:25:43;7.75;;;7.05;;
27925;SDS011;15267;47.838;12.128;2023-06-10T04:28:09;9.30;;;7.78;;
27925;SDS011;15267;47.838;12.128;2023-06-10T04:30:35;8.95;;;7.53;;
27925;SDS011;15267;47.838;12.128;2023-06-10T04:33:01;8.18;;;7.38;;
27925;SDS011;15267;47.838;12.128;2023-06-10T04:35:27;8.07;;;7.28;;
27925;SDS011;15267;47.838;12.128;2023-06-10T04:37:53;9.05;;;6.88;;
27925;SDS011;15267;47.838;12.128;2023-06-10T04:40:19;9.40;;;7.57;;
27925;SDS011;15267;47.838;12.128;2023-06-10T04:42:45;8.48;;;6.55;;
27925;SDS011;15267;47.838;12.128;2023-06-10T04:45:11;7.63;;;6.57;;
27925;SDS011;15267;47.838;12.128;2023-06-10T04:47:37;8.18;;;7.05;;
27925;SDS011;15267;47.838;12.128;2023-06-10T04:50:03;8.90;;;6.50;;
27925;SDS011;15267;47.838;12.128;2023-06-10T04:52:30;12.13;;;6.70;;
27925;SDS011;15267;47.838;12.128;2023-06-10T04:54:57;7.43;;;6.60;;
27925;SDS011;15267;47.838;12.128;2023-06-10T04:57:23;10.35;;;6.50;;
27925;SDS011;15267;47.838;12.128;2023-06-10T04:59:49;7.55;;;6.10;;
27925;SDS011;15267;47.838;12.128;2023-06-10T05:02:15;7.97;;;6.60;;
27925;SDS011;15267;47.838;12.128;2023-06-10T05:04:41;8.85;;;6.90;;
27925;SDS011;15267;47.838;12.128;2023-06-10T05:07:07;7.72;;;6.70;;
27925;SDS011;15267;47.838;12.128;2023-06-10T05:09:33;6.85;;;6.15;;
27925;SDS011;15267;47.838;12.128;2023-06-10T05:11:59;8.40;;;6.60;;
27925;SDS011;15267;47.838;12.128;2023-06-10T05:14:25;8.45;;;6.63;;
27925;SDS011;15267;47.838;12.128;2023-06-10T05:16:52;7.72;;;6.35;;
27925;SDS011;15267;47.838;12.128;2023-06-10T05:19:18;8.02;;;6.15;;
27925;SDS011;15267;47.838;12.128;2023-06-10T05:21:44;7.57;;;6.43;;
27925;SDS011;15267;47.838;12.128;2023-06-10T05:24:11;7.20;;;6.60;;
27925;SDS011;15267;47.838;12.128;2023-06-10T05:26:37;7.38;;;6.68;;
27925;SDS011;15267;47.838;12.128;2023-06-10T05:29:03;8.55;;;7.25;;
27925;SDS011;15267;47.838;12.128;2023-06-10T05:31:29;7.00;;;6.30;;
27925;SDS011;15267;47.838;12.128;2023-06-10T05:33:55;8.77;;;7.72;;
27925;SDS011;15267;47.838;12.128;2023-06-10T05:36:21;9.23;;;7.13;;
27925;SDS011;15267;47.838;12.128;2023-06-10T05:38:50;6.90;;;6.20;;
27925;SDS011;15267;47.838;12.128;2023-06-10T05:41:16;8.00;;;6.78;;
27925;SDS011;15267;47.838;12.128;2023-06-10T05:43:42;8.20;;;6.88;;
27925;SDS011;15267;47.838;12.128;2023-06-10T05:46:08;7.32;;;6.53;;
27925;SDS011;15267;47.838;12.128;2023-06-10T05:48:34;7.97;;;6.80;;
27925;SDS011;15267;47.838;12.128;2023-06-10T05:50:59;6.75;;;5.68;;
27925;SDS011;15267;47.838;12.128;2023-06-10T05:53:26;10.27;;;6.22;;
27925;SDS011;15267;47.838;12.128;2023-06-10T05:55:52;8.20;;;6.18;;
27925;SDS011;15267;47.838;12.128;2023-06-10T05:58:22;8.93;;;5.53;;
27925;SDS011;15267;47.838;12.128;2023-06-10T06:00:48;8.30;;;6.43;;
27925;SDS011;15267;47.838;12.128;2023-06-10T06:03:14;8.65;;;6.28;;
27925;SDS011;15267;47.838;12.128;2023-06-10T06:05:40;10.98;;;6.20;;
27925;SDS011;15267;47.838;12.128;2023-06-10T06:08:06;6.47;;;5.85;;
27925;SDS011;15267;47.838;12.128;2023-06-10T06:10:32;10.15;;;6.10;;
27925;SDS011;15267;47.838;12.128;2023-06-10T06:12:58;6.95;;;5.90;;
27925;SDS011;15267;47.838;12.128;2023-06-10T06:15:24;7.30;;;6.18;;
27925;SDS011;15267;47.838;12.128;2023-06-10T06:17:50;8.18;;;6.60;;
27925;SDS011;15267;47.838;12.128;2023-06-10T06:20:20;6.90;;;6.20;;
27925;SDS011;15267;47.838;12.128;2023-06-10T06:22:46;7.75;;;6.38;;
27925;SDS011;15267;47.838;12.128;2023-06-10T06:25:12;7.10;;;6.28;;
27925;SDS011;15267;47.838;12.128;2023-06-10T06:27:38;7.18;;;6.43;;
27925;SDS011;15267;47.838;12.128;2023-06-10T06:30:05;7.72;;;6.90;;
27925;SDS011;15267;47.838;12.128;2023-06-10T06:32:32;7.43;;;6.63;;
27925;SDS011;15267;47.838;12.128;2023-06-10T06:34:58;6.95;;;6.18;;
27925;SDS011;15267;47.838;12.128;2023-06-10T06:37:24;8.00;;;6.53;;
27925;SDS011;15267;47.838;12.128;2023-06-10T06:39:51;7.07;;;6.47;;
27925;SDS011;15267;47.838;12.128;2023-06-10T06:42:17;7.32;;;6.63;;
27925;SDS011;15267;47.838;12.128;2023-06-10T06:44:43;8.40;;;7.13;;
27925;SDS011;15267;47.838;12.128;2023-06-10T06:47:09;7.10;;;5.97;;
27925;SDS011;15267;47.838;12.128;2023-06-10T06:49:35;6.78;;;6.13;;
27925;SDS011;15267;47.838;12.128;2023-06-10T06:52:01;8.05;;;6.07;;
27925;SDS011;15267;47.838;12.128;2023-06-10T06:54:27;7.07;;;6.47;;
27925;SDS011;15267;47.838;12.128;2023-06-10T06:56:54;7.53;;;6.63;;
27925;SDS011;15267;47.838;12.128;2023-06-10T06:59:20;6.97;;;5.88;;
27925;SDS011;15267;47.838;12.128;2023-06-10T07:01:46;6.35;;;5.78;;
27925;SDS011;15267;47.838;12.128;2023-06-10T07:04:14;6.63;;;5.90;;
27925;SDS011;15267;47.838;12.128;2023-06-10T07:06:40;7.00;;;6.30;;
27925;SDS011;15267;47.838;12.128;2023-06-10T07:09:06;9.70;;;6.35;;
27925;SDS011;15267;47.838;12.128;2023-06-10T07:11:33;9.60;;;6.95;;
27925;SDS011;15267;47.838;12.128;2023-06-10T07:13:59;7.90;;;6.90;;
27925;SDS011;15267;47.838;12.128;2023-06-10T07:16:25;9.95;;;7.03;;
27925;SDS011;15267;47.838;12.128;2023-06-10T07:18:52;8.82;;;7.53;;
27925;SDS011;15267;47.838;12.128;2023-06-10T07:21:18;8.23;;;7.20;;
27925;SDS011;15267;47.838;12.128;2023-06-10T07:23:44;8.88;;;7.45;;
27925;SDS011;15267;47.838;12.128;2023-06-10T07:26:10;10.23;;;7.43;;
27925;SDS011;15267;47.838;12.128;2023-06-10T07:28:38;9.43;;;6.97;;
27925;SDS011;15267;47.838;12.128;2023-06-10T07:31:04;7.95;;;6.93;;
27925;SDS011;15267;47.838;12.128;2023-06-10T07:33:30;9.70;;;7.50;;
27925;SDS011;15267;47.838;12.128;2023-06-10T07:35:56;9.48;;;7.90;;
27925;SDS011;15267;47.838;12.128;2023-06-10T07:38:22;9.32;;;8.00;;
27925;SDS011;15267;47.838;12.128;2023-06-10T07:40:48;9.82;;;7.72;;
27925;SDS011;15267;47.838;12.128;2023-06-10T07:43:14;7.60;;;6.80;;
27925;SDS011;15267;47.838;12.128;2023-06-10T07:45:40;8.23;;;7.35;;
27925;SDS011;15267;47.838;12.128;2023-06-10T07:48:06;8.75;;;6.82;;
27925;SDS011;15267;47.838;12.128;2023-06-10T07:50:32;7.68;;;6.90;;
27925;SDS011;15267;47.838;12.128;2023-06-10T07:52:58;11.07;;;7.10;;
27925;SDS011;15267;47.838;12.128;2023-06-10T07:55:24;10.10;;;7.95;;
27925;SDS011;15267;47.838;12.128;2023-06-10T07:57:53;8.48;;;7.55;;
27925;SDS011;15267;47.838;12.128;2023-06-10T08:00:20;8.85;;;7.95;;
27925;SDS011;15267;47.838;12.128;2023-06-10T08:02:46;9.23;;;8.23;;
27925;SDS011;15267;47.838;12.128;2023-06-10T08:05:12;12.60;;;9.07;;
27925;SDS011;15267;47.838;12.128;2023-06-10T08:07:41;9.85;;;8.85;;
27925;SDS011;15267;47.838;12.128;2023-06-10T08:10:07;13.88;;;8.77;;
27925;SDS011;15267;47.838;12.128;2023-06-10T08:12:33;10.57;;;8.45;;
27925;SDS011;15267;47.838;12.128;2023-06-10T08:14:59;10.75;;;8.50;;
27925;SDS011;15267;47.838;12.128;2023-06-10T08:17:25;9.35;;;8.45;;
27925;SDS011;15267;47.838;12.128;2023-06-10T08:19:51;9.30;;;8.30;;
27925;SDS011;15267;47.838;12.128;2023-06-10T08:22:17;11.50;;;9.07;;
27925;SDS011;15267;47.838;12.128;2023-06-10T08:24:43;10.80;;;8.73;;
27925;SDS011;15267;47.838;12.128;2023-06-10T08:27:09;9.95;;;9.02;;
27925;SDS011;15267;47.838;12.128;2023-06-10T08:29:35;9.77;;;8.20;;
27925;SDS011;15267;47.838;12.128;2023-06-10T08:32:01;10.02;;;7.93;;
27925;SDS011;15267;47.838;12.128;2023-06-10T08:34:27;10.40;;;8.45;;
27925;SDS011;15267;47.838;12.128;2023-06-10T08:36:53;9.57;;;8.27;;
27925;SDS011;15267;47.838;12.128;2023-06-10T08:39:20;9.93;;;8.93;;
27925;SDS011;15267;47.838;12.128;2023-06-10T08:42:09;10.95;;;8.60;;
27925;SDS011;15267;47.838;12.128;2023-06-10T08:44:35;10.07;;;9.07;;
27925;SDS011;15267;47.838;12.128;2023-06-10T08:47:11;9.25;;;8.35;;
27925;SDS011;15267;47.838;12.128;2023-06-10T08:49:41;9.55;;;8.63;;
27925;SDS011;15267;47.838;12.128;2023-06-10T08:52:08;11.95;;;9.98;;
27925;SDS011;15267;47.838;12.128;2023-06-10T08:54:35;10.50;;;8.95;;
27925;SDS011;15267;47.838;12.128;2023-06-10T08:57:03;10.50;;;9.35;;
27925;SDS011;15267;47.838;12.128;2023-06-10T08:59:31;10.93;;;9.85;;
27925;SDS011;15267;47.838;12.128;2023-06-10T09:01:57;10.95;;;9.85;;
27925;SDS011;15267;47.838;12.128;2023-06-10T09:04:24;10.10;;;8.25;;
27925;SDS011;15267;47.838;12.128;2023-06-10T09:06:50;8.65;;;7.85;;
27925;SDS011;15267;47.838;12.128;2023-06-10T09:09:16;9.73;;;8.68;;
27925;SDS011;15267;47.838;12.128;2023-06-10T09:11:44;9.73;;;8.73;;
27925;SDS011;15267;47.838;12.128;2023-06-10T09:14:10;9.90;;;8.90;;
27925;SDS011;15267;47.838;12.128;2023-06-10T09:16:40;9.30;;;8.23;;
27925;SDS011;15267;47.838;12.128;2023-06-10T09:19:06;8.82;;;7.85;;
27925;SDS011;15267;47.838;12.128;2023-06-10T09:21:35;9.63;;;7.20;;
27925;SDS011;15267;47.838;12.128;2023-06-10T09:24:01;8.05;;;7.20;;
27925;SDS011;15267;47.838;12.128;2023-06-10T09:26:28;8.20;;;6.32;;
27925;SDS011;15267;47.838;12.128;2023-06-10T09:28:57;6.88;;;6.13;;
27925;SDS011;15267;47.838;12.128;2023-06-10T09:31:29;7.40;;;5.68;;
27925;SDS011;15267;47.838;12.128;2023-06-10T09:34:04;5.28;;;4.78;;
27925;SDS011;15267;47.838;12.128;2023-06-10T09:36:29;5.35;;;4.53;;
27925;SDS011;15267;47.838;12.128;2023-06-10T09:38:56;5.43;;;4.93;;
27925;SDS011;15267;47.838;12.128;2023-06-10T09:41:25;6.00;;;5.40;;
27925;SDS011;15267;47.838;12.128;2023-06-10T09:43:57;6.55;;;5.90;;
27925;SDS011;15267;47.838;12.128;2023-06-10T09:46:23;6.55;;;5.60;;
27925;SDS011;15267;47.838;12.128;2023-06-10T09:48:49;6.53;;;5.90;;
27925;SDS011;15267;47.838;12.128;2023-06-10T09:51:15;7.38;;;6.57;;
27925;SDS011;15267;47.838;12.128;2023-06-10T09:53:47;6.70;;;6.10;;
27925;SDS011;15267;47.838;12.128;2023-06-10T09:56:14;6.63;;;5.97;;
27925;SDS011;15267;47.838;12.128;2023-06-10T09:58:40;8.32;;;6.22;;
27925;SDS011;15267;47.838;12.128;2023-06-10T10:01:08;10.73;;;6.32;;
27925;SDS011;15267;47.838;12.128;2023-06-10T10:03:44;8.52;;;6.30;;
27925;SDS011;15267;47.838;12.128;2023-06-10T10:06:11;6.78;;;6.10;;
27925;SDS011;15267;47.838;12.128;2023-06-10T10:08:37;6.47;;;5.35;;
27925;SDS011;15267;47.838;12.128;2023-06-10T10:11:03;10.18;;;6.10;;
27925;SDS011;15267;47.838;12.128;2023-06-10T10:13:29;5.60;;;5.10;;
27925;SDS011;15267;47.838;12.128;2023-06-10T10:15:57;6.18;;;5.40;;
27925;SDS011;15267;47.838;12.128;2023-06-10T10:18:25;7.78;;;4.78;;
27925;SDS011;15267;47.838;12.128;2023-06-10T10:20:55;5.35;;;4.85;;
27925;SDS011;15267;47.838;12.128;2023-06-10T10:23:24;7.00;;;4.35;;
27925;SDS011;15267;47.838;12.128;2023-06-10T10:25:51;5.43;;;4.70;;
27925;SDS011;15267;47.838;12.128;2023-06-10T10:28:18;7.28;;;4.50;;
27925;SDS011;15267;47.838;12.128;2023-06-10T10:30:47;6.57;;;4.85;;
27925;SDS011;15267;47.838;12.128;2023-06-10T10:35:56;5.28;;;4.78;;
27925;SDS011;15267;47.838;12.128;2023-06-10T10:38:22;4.57;;;4.18;;
27925;SDS011;15267;47.838;12.128;2023-06-10T10:40:48;5.88;;;4.28;;
27925;SDS011;15267;47.838;12.128;2023-06-10T10:43:14;4.72;;;4.00;;
27925;SDS011;15267;47.838;12.128;2023-06-10T10:45:41;5.22;;;4.32;;
27925;SDS011;15267;47.838;12.128;2023-06-10T10:48:10;6.57;;;4.60;;
27925;SDS011;15267;47.838;12.128;2023-06-10T10:50:37;5.07;;;4.63;;
27925;SDS011;15267;47.838;12.128;2023-06-10T10:53:04;5.22;;;4.38;;
27925;SDS011;15267;47.838;12.128;2023-06-10T10:55:31;5.32;;;4.50;;
27925;SDS011;15267;47.838;12.128;2023-06-10T10:57:58;5.32;;;4.47;;
27925;SDS011;15267;47.838;12.128;2023-06-10T11:00:28;4.60;;;4.10;;
27925;SDS011;15267;47.838;12.128;2023-06-10T11:02:58;5.05;;;4.55;;
27925;SDS011;15267;47.838;12.128;2023-06-10T11:05:58;5.03;;;4.30;;
27925;SDS011;15267;47.838;12.128;2023-06-10T11:10:58;4.72;;;4.32;;
27925;SDS011;15267;47.838;12.128;2023-06-10T11:13:25;4.57;;;4.18;;
27925;SDS011;15267;47.838;12.128;2023-06-10T11:15:51;5.20;;;4.60;;
27925;SDS011;15267;47.838;12.128;2023-06-10T11:18:22;5.35;;;4.47;;
27925;SDS011;15267;47.838;12.128;2023-06-10T11:31:22;4.50;;;4.13;;
27925;SDS011;15267;47.838;12.128;2023-06-10T11:33:49;4.38;;;3.97;;
27925;SDS011;15267;47.838;12.128;2023-06-10T11:36:17;5.63;;;4.07;;
27925;SDS011;15267;47.838;12.128;2023-06-10T11:38:43;4.25;;;3.85;;
27925;SDS011;15267;47.838;12.128;2023-06-10T11:41:10;4.20;;;3.80;;
27925;SDS011;15267;47.838;12.128;2023-06-10T11:43:37;3.90;;;3.50;;
27925;SDS011;15267;47.838;12.128;2023-06-10T11:46:03;4.20;;;3.50;;
27925;SDS011;15267;47.838;12.128;2023-06-10T11:48:29;3.35;;;3.05;;
27925;SDS011;15267;47.838;12.128;2023-06-10T11:50:56;3.47;;;3.10;;
27925;SDS011;15267;47.838;12.128;2023-06-10T11:53:22;8.23;;;3.20;;
27925;SDS011;15267;47.838;12.128;2023-06-10T11:55:49;4.25;;;3.10;;
27925;SDS011;15267;47.838;12.128;2023-06-10T11:58:19;3.22;;;2.75;;
27925;SDS011;15267;47.838;12.128;2023-06-10T12:00:46;3.00;;;2.70;;
27925;SDS011;15267;47.838;12.128;2023-06-10T12:03:12;4.82;;;2.83;;
27925;SDS011;15267;47.838;12.128;2023-06-10T12:05:38;3.38;;;2.63;;
27925;SDS011;15267;47.838;12.128;2023-06-10T12:08:07;3.45;;;2.50;;
27925;SDS011;15267;47.838;12.128;2023-06-10T12:10:38;3.13;;;2.75;;
27925;SDS011;15267;47.838;12.128;2023-06-10T12:13:04;2.70;;;2.50;;
27925;SDS011;15267;47.838;12.128;2023-06-10T12:15:30;3.50;;;2.92;;
27925;SDS011;15267;47.838;12.128;2023-06-10T12:17:57;2.92;;;2.60;;
27925;SDS011;15267;47.838;12.128;2023-06-10T12:20:27;3.72;;;3.25;;
27925;SDS011;15267;47.838;12.128;2023-06-10T12:22:53;3.38;;;2.70;;
27925;SDS011;15267;47.838;12.128;2023-06-10T12:25:24;2.88;;;2.67;;
27925;SDS011;15267;47.838;12.128;2023-06-10T12:27:51;3.33;;;3.00;;
27925;SDS011;15267;47.838;12.128;2023-06-10T12:30:21;3.30;;;3.00;;
27925;SDS011;15267;47.838;12.128;2023-06-10T12:32:47;5.15;;;3.67;;
27925;SDS011;15267;47.838;12.128;2023-06-10T12:35:16;6.60;;;3.72;;
27925;SDS011;15267;47.838;12.128;2023-06-10T12:37:42;4.72;;;3.95;;
27925;SDS011;15267;47.838;12.128;2023-06-10T12:40:25;4.90;;;4.50;;
27925;SDS011;15267;47.838;12.128;2023-06-10T12:42:51;5.32;;;4.32;;
27925;SDS011;15267;47.838;12.128;2023-06-10T12:45:25;5.03;;;4.53;;
27925;SDS011;15267;47.838;12.128;2023-06-10T12:48:03;5.05;;;4.57;;
27925;SDS011;15267;47.838;12.128;2023-06-10T12:50:29;5.10;;;4.70;;
27925;SDS011;15267;47.838;12.128;2023-06-10T12:52:56;4.65;;;4.25;;
27925;SDS011;15267;47.838;12.128;2023-06-10T12:55:22;5.30;;;4.80;;
27925;SDS011;15267;47.838;12.128;2023-06-10T12:57:48;5.30;;;4.80;;
27925;SDS011;15267;47.838;12.128;2023-06-10T13:00:15;6.20;;;4.82;;
27925;SDS011;15267;47.838;12.128;2023-06-10T13:02:41;6.15;;;4.75;;
27925;SDS011;15267;47.838;12.128;2023-06-10T13:05:07;4.88;;;4.45;;
27925;SDS011;15267;47.838;12.128;2023-06-10T13:07:33;5.00;;;4.50;;
27925;SDS011;15267;47.838;12.128;2023-06-10T13:09:59;6.03;;;4.60;;
27925;SDS011;15267;47.838;12.128;2023-06-10T13:12:26;4.78;;;4.38;;
27925;SDS011;15267;47.838;12.128;2023-06-10T13:14:53;5.75;;;4.28;;
27925;SDS011;15267;47.838;12.128;2023-06-10T13:17:20;4.32;;;3.92;;
27925;SDS011;15267;47.838;12.128;2023-06-10T13:19:46;4.57;;;4.10;;
27925;SDS011;15267;47.838;12.128;2023-06-10T13:22:13;4.38;;;3.97;;
27925;SDS011;15267;47.838;12.128;2023-06-10T13:24:39;4.63;;;3.78;;
27925;SDS011;15267;47.838;12.128;2023-06-10T13:27:06;4.20;;;3.75;;
27925;SDS011;15267;47.838;12.128;2023-06-10T13:29:32;4.78;;;3.85;;
27925;SDS011;15267;47.838;12.128;2023-06-10T13:31:58;4.32;;;3.88;;
27925;SDS011;15267;47.838;12.128;2023-06-10T13:34:24;5.18;;;3.88;;
27925;SDS011;15267;47.838;12.128;2023-06-10T13:36:50;6.95;;;3.88;;
27925;SDS011;15267;47.838;12.128;2023-06-10T13:39:16;4.22;;;3.90;;
27925;SDS011;15267;47.838;12.128;2023-06-10T13:41:42;6.50;;;4.00;;
27925;SDS011;15267;47.838;12.128;2023-06-10T13:44:08;4.85;;;3.83;;
27925;SDS011;15267;47.838;12.128;2023-06-10T13:46:34;3.97;;;3.60;;
27925;SDS011;15267;47.838;12.128;2023-06-10T13:49:00;4.40;;;3.40;;
27925;SDS011;15267;47.838;12.128;2023-06-10T13:51:26;4.00;;;3.60;;
27925;SDS011;15267;47.838;12.128;2023-06-10T13:53:52;3.75;;;3.45;;
27925;SDS011;15267;47.838;12.128;2023-06-10T13:56:18;3.88;;;3.35;;
27925;SDS011;15267;47.838;12.128;2023-06-10T13:58:44;3.58;;;3.28;;
27925;SDS011;15267;47.838;12.128;2023-06-10T14:01:10;3.70;;;3.40;;
27925;SDS011;15267;47.838;12.128;2023-06-10T14:03:36;5.70;;;3.50;;
27925;SDS011;15267;47.838;12.128;2023-06-10T14:06:02;3.80;;;3.50;;
27925;SDS011;15267;47.838;12.128;2023-06-10T14:08:28;5.63;;;3.70;;
27925;SDS011;15267;47.838;12.128;2023-06-10T14:10:54;4.32;;;3.92;;
27925;SDS011;15267;47.838;12.128;2023-06-10T14:13:20;4.10;;;3.22;;
27925;SDS011;15267;47.838;12.128;2023-06-10T14:15:47;4.45;;;3.78;;
27925;SDS011;15267;47.838;12.128;2023-06-10T14:18:13;4.13;;;3.80;;
27925;SDS011;15267;47.838;12.128;2023-06-10T14:20:39;3.92;;;3.30;;
27925;SDS011;15267;47.838;12.128;2023-06-10T14:23:05;5.65;;;3.10;;
27925;SDS011;15267;47.838;12.128;2023-06-10T14:25:31;4.05;;;2.80;;
27925;SDS011;15267;47.838;12.128;2023-06-10T14:27:57;3.25;;;2.70;;
27925;SDS011;15267;47.838;12.128;2023-06-10T14:30:23;4.00;;;2.75;;
27925;SDS011;15267;47.838;12.128;2023-06-10T14:32:49;3.03;;;2.83;;
27925;SDS011;15267;47.838;12.128;2023-06-10T14:35:14;3.10;;;2.90;;
27925;SDS011;15267;47.838;12.128;2023-06-10T14:37:41;4.60;;;3.08;;
27925;SDS011;15267;47.838;12.128;2023-06-10T14:40:07;4.30;;;3.63;;
27925;SDS011;15267;47.838;12.128;2023-06-10T14:42:33;6.38;;;4.07;;
27925;SDS011;15267;47.838;12.128;2023-06-10T14:44:59;5.47;;;3.88;;
27925;SDS011;15267;47.838;12.128;2023-06-10T14:47:25;7.18;;;3.60;;
27925;SDS011;15267;47.838;12.128;2023-06-10T14:49:51;3.80;;;3.03;;